sensor_id;sensor_type;location;lat;lon;timestamp;temperature;humidity
5248;DHT22;2644;52.420;13.580;2022-08-01T00:00:27;22.30;93.00
5248;DHT22;2644;52.420;13.580;2022-08-01T00:01:30;22.30;93.10
5248;DHT22;2644;52.420;13.580;2022-08-01T00:02:33;22.30;93.10
5248;DHT22;2644;52.420;13.580;2022-08-01T00:03:36;22.30;93.10
5248;DHT22;2644;52.420;13.580;2022-08-01T00:04:39;22.30;93.20
5248;DHT22;2644;52.420;13.580;2022-08-01T00:05:42;22.20;93.40
5248;DHT22;2644;52.420;13.580;2022-08-01T00:06:46;22.20;93.40
5248;DHT22;2644;52.420;13.580;2022-08-01T00:07:49;22.20;93.60
5248;DHT22;2644;52.420;13.580;2022-08-01T00:08:51;22.20;93.60
5248;DHT22;2644;52.420;13.580;2022-08-01T00:09:54;22.20;93.80
5248;DHT22;2644;52.420;13.580;2022-08-01T00:10:57;22.20;94.20
5248;DHT22;2644;52.420;13.580;2022-08-01T00:12:04;22.20;94.20
5248;DHT22;2644;52.420;13.580;2022-08-01T00:13:07;22.10;94.30
5248;DHT22;2644;52.420;13.580;2022-08-01T00:14:11;22.10;94.40
5248;DHT22;2644;52.420;13.580;2022-08-01T00:15:15;22.00;94.50
5248;DHT22;2644;52.420;13.580;2022-08-01T00:16:18;22.00;94.60
5248;DHT22;2644;52.420;13.580;2022-08-01T00:17:24;21.90;94.70
5248;DHT22;2644;52.420;13.580;2022-08-01T00:18:28;21.90;94.80
5248;DHT22;2644;52.420;13.580;2022-08-01T00:19:31;21.90;95.10
5248;DHT22;2644;52.420;13.580;2022-08-01T00:20:33;21.90;95.10
5248;DHT22;2644;52.420;13.580;2022-08-01T00:21:36;21.90;95.30
5248;DHT22;2644;52.420;13.580;2022-08-01T00:22:38;21.90;95.30
5248;DHT22;2644;52.420;13.580;2022-08-01T00:23:41;21.90;95.30
5248;DHT22;2644;52.420;13.580;2022-08-01T00:24:43;21.90;95.50
5248;DHT22;2644;52.420;13.580;2022-08-01T00:25:46;21.90;96.00
5248;DHT22;2644;52.420;13.580;2022-08-01T00:26:48;21.90;95.50
5248;DHT22;2644;52.420;13.580;2022-08-01T00:27:51;21.80;95.70
5248;DHT22;2644;52.420;13.580;2022-08-01T00:28:54;21.80;95.70
5248;DHT22;2644;52.420;13.580;2022-08-01T00:29:57;21.80;95.90
5248;DHT22;2644;52.420;13.580;2022-08-01T00:31:15;21.80;96.10
5248;DHT22;2644;52.420;13.580;2022-08-01T00:32:18;21.80;96.40
5248;DHT22;2644;52.420;13.580;2022-08-01T00:33:20;21.80;96.40
5248;DHT22;2644;52.420;13.580;2022-08-01T00:34:25;21.80;96.30
5248;DHT22;2644;52.420;13.580;2022-08-01T00:35:28;21.80;96.40
5248;DHT22;2644;52.420;13.580;2022-08-01T00:36:30;21.70;96.60
5248;DHT22;2644;52.420;13.580;2022-08-01T00:37:33;21.80;96.80
5248;DHT22;2644;52.420;13.580;2022-08-01T00:38:35;21.80;96.70
5248;DHT22;2644;52.420;13.580;2022-08-01T00:39:38;21.80;96.80
5248;DHT22;2644;52.420;13.580;2022-08-01T00:40:40;21.70;96.90
5248;DHT22;2644;52.420;13.580;2022-08-01T00:41:43;21.70;97.10
5248;DHT22;2644;52.420;13.580;2022-08-01T00:42:45;21.70;97.30
5248;DHT22;2644;52.420;13.580;2022-08-01T00:43:48;21.70;97.50
5248;DHT22;2644;52.420;13.580;2022-08-01T00:44:51;21.70;97.60
5248;DHT22;2644;52.420;13.580;2022-08-01T00:45:53;21.60;97.80
5248;DHT22;2644;52.420;13.580;2022-08-01T00:46:56;21.60;97.80
5248;DHT22;2644;52.420;13.580;2022-08-01T00:47:58;21.60;98.00
5248;DHT22;2644;52.420;13.580;2022-08-01T00:49:02;21.60;98.30
5248;DHT22;2644;52.420;13.580;2022-08-01T00:50:12;21.60;98.30
5248;DHT22;2644;52.420;13.580;2022-08-01T00:51:15;21.60;98.60
5248;DHT22;2644;52.420;13.580;2022-08-01T00:52:18;21.60;98.30
5248;DHT22;2644;52.420;13.580;2022-08-01T00:53:21;21.60;98.60
5248;DHT22;2644;52.420;13.580;2022-08-01T00:54:30;21.60;98.80
5248;DHT22;2644;52.420;13.580;2022-08-01T00:55:32;21.60;98.90
5248;DHT22;2644;52.420;13.580;2022-08-01T00:56:36;21.60;99.00
5248;DHT22;2644;52.420;13.580;2022-08-01T00:57:38;21.60;98.90
5248;DHT22;2644;52.420;13.580;2022-08-01T00:59:03;21.60;99.10
5248;DHT22;2644;52.420;13.580;2022-08-01T01:00:10;21.60;99.30
5248;DHT22;2644;52.420;13.580;2022-08-01T01:01:13;21.50;99.30
5248;DHT22;2644;52.420;13.580;2022-08-01T01:02:16;21.50;99.50
5248;DHT22;2644;52.420;13.580;2022-08-01T01:03:20;21.50;99.70
5248;DHT22;2644;52.420;13.580;2022-08-01T01:04:34;21.50;99.80
5248;DHT22;2644;52.420;13.580;2022-08-01T01:05:47;21.50;99.90
5248;DHT22;2644;52.420;13.580;2022-08-01T01:06:57;21.50;99.90
5248;DHT22;2644;52.420;13.580;2022-08-01T01:08:06;21.50;99.90
5248;DHT22;2644;52.420;13.580;2022-08-01T01:09:21;21.50;99.90
5248;DHT22;2644;52.420;13.580;2022-08-01T01:10:28;21.50;99.90
5248;DHT22;2644;52.420;13.580;2022-08-01T01:11:39;21.50;99.90
5248;DHT22;2644;52.420;13.580;2022-08-01T01:12:51;21.50;99.90
5248;DHT22;2644;52.420;13.580;2022-08-01T01:14:00;21.50;99.90
5248;DHT22;2644;52.420;13.580;2022-08-01T01:15:07;21.50;99.90
5248;DHT22;2644;52.420;13.580;2022-08-01T01:16:13;21.50;99.90
5248;DHT22;2644;52.420;13.580;2022-08-01T01:17:21;21.50;99.90
5248;DHT22;2644;52.420;13.580;2022-08-01T01:18:47;21.50;99.90
5248;DHT22;2644;52.420;13.580;2022-08-01T01:19:51;21.50;99.90
5248;DHT22;2644;52.420;13.580;2022-08-01T01:21:01;21.40;99.90
5248;DHT22;2644;52.420;13.580;2022-08-01T01:22:24;21.40;99.90
5248;DHT22;2644;52.420;13.580;2022-08-01T01:23:44;21.40;99.90
5248;DHT22;2644;52.420;13.580;2022-08-01T01:25:04;21.40;99.90
5248;DHT22;2644;52.420;13.580;2022-08-01T01:26:21;21.40;99.90
5248;DHT22;2644;52.420;13.580;2022-08-01T01:27:36;21.40;99.90
5248;DHT22;2644;52.420;13.580;2022-08-01T01:28:53;21.40;99.90
5248;DHT22;2644;52.420;13.580;2022-08-01T01:29:59;21.30;99.90
5248;DHT22;2644;52.420;13.580;2022-08-01T01:31:06;21.40;99.90
5248;DHT22;2644;52.420;13.580;2022-08-01T01:32:17;21.40;99.90
5248;DHT22;2644;52.420;13.580;2022-08-01T01:33:32;21.30;99.90
5248;DHT22;2644;52.420;13.580;2022-08-01T01:34:37;21.30;99.90
5248;DHT22;2644;52.420;13.580;2022-08-01T01:35:45;21.30;99.90
5248;DHT22;2644;52.420;13.580;2022-08-01T01:36:49;21.30;99.90
5248;DHT22;2644;52.420;13.580;2022-08-01T01:37:56;21.30;99.90
5248;DHT22;2644;52.420;13.580;2022-08-01T01:39:00;21.30;99.90
5248;DHT22;2644;52.420;13.580;2022-08-01T01:40:05;21.30;99.90
5248;DHT22;2644;52.420;13.580;2022-08-01T01:41:09;21.20;99.90
5248;DHT22;2644;52.420;13.580;2022-08-01T01:42:15;21.20;99.90
5248;DHT22;2644;52.420;13.580;2022-08-01T01:43:19;21.20;99.90
5248;DHT22;2644;52.420;13.580;2022-08-01T01:44:36;21.10;99.90
5248;DHT22;2644;52.420;13.580;2022-08-01T01:45:40;21.10;99.90
5248;DHT22;2644;52.420;13.580;2022-08-01T01:46:43;21.10;99.90
5248;DHT22;2644;52.420;13.580;2022-08-01T01:47:48;21.10;99.90
5248;DHT22;2644;52.420;13.580;2022-08-01T01:48:51;21.10;99.90
5248;DHT22;2644;52.420;13.580;2022-08-01T01:49:57;21.10;99.90
5248;DHT22;2644;52.420;13.580;2022-08-01T01:51:04;21.10;99.90
5248;DHT22;2644;52.420;13.580;2022-08-01T01:52:07;21.10;99.90
5248;DHT22;2644;52.420;13.580;2022-08-01T01:53:12;21.10;99.90
5248;DHT22;2644;52.420;13.580;2022-08-01T01:54:17;21.10;99.90
5248;DHT22;2644;52.420;13.580;2022-08-01T01:55:21;21.10;99.90
5248;DHT22;2644;52.420;13.580;2022-08-01T01:56:26;21.00;99.90
5248;DHT22;2644;52.420;13.580;2022-08-01T01:57:31;21.00;99.90
5248;DHT22;2644;52.420;13.580;2022-08-01T01:58:34;21.00;99.90
5248;DHT22;2644;52.420;13.580;2022-08-01T01:59:41;21.00;99.90
5248;DHT22;2644;52.420;13.580;2022-08-01T02:00:45;21.00;99.90
5248;DHT22;2644;52.420;13.580;2022-08-01T02:01:53;21.00;99.90
5248;DHT22;2644;52.420;13.580;2022-08-01T02:03:11;20.90;99.90
5248;DHT22;2644;52.420;13.580;2022-08-01T02:04:15;20.90;99.90
5248;DHT22;2644;52.420;13.580;2022-08-01T02:05:18;20.90;99.90
5248;DHT22;2644;52.420;13.580;2022-08-01T02:06:22;20.90;99.90
5248;DHT22;2644;52.420;13.580;2022-08-01T02:07:26;20.90;99.90
5248;DHT22;2644;52.420;13.580;2022-08-01T02:08:31;20.80;99.90
5248;DHT22;2644;52.420;13.580;2022-08-01T02:09:35;20.80;99.90
5248;DHT22;2644;52.420;13.580;2022-08-01T02:10:40;20.80;99.90
5248;DHT22;2644;52.420;13.580;2022-08-01T02:11:43;20.80;99.90
5248;DHT22;2644;52.420;13.580;2022-08-01T02:13:07;20.80;99.90
5248;DHT22;2644;52.420;13.580;2022-08-01T02:14:13;20.80;99.90
5248;DHT22;2644;52.420;13.580;2022-08-01T02:15:18;20.80;99.90
5248;DHT22;2644;52.420;13.580;2022-08-01T02:16:25;20.80;99.90
5248;DHT22;2644;52.420;13.580;2022-08-01T02:17:28;20.70;99.90
5248;DHT22;2644;52.420;13.580;2022-08-01T02:18:32;20.80;99.90
5248;DHT22;2644;52.420;13.580;2022-08-01T02:19:34;20.70;99.90
5248;DHT22;2644;52.420;13.580;2022-08-01T02:20:39;20.70;99.90
5248;DHT22;2644;52.420;13.580;2022-08-01T02:21:46;20.70;99.90
5248;DHT22;2644;52.420;13.580;2022-08-01T02:22:53;20.60;99.90
5248;DHT22;2644;52.420;13.580;2022-08-01T02:24:03;20.60;99.90
5248;DHT22;2644;52.420;13.580;2022-08-01T02:25:15;20.60;99.90
5248;DHT22;2644;52.420;13.580;2022-08-01T02:26:21;20.60;99.90
5248;DHT22;2644;52.420;13.580;2022-08-01T02:27:27;20.60;99.90
5248;DHT22;2644;52.420;13.580;2022-08-01T02:28:34;20.60;99.90
5248;DHT22;2644;52.420;13.580;2022-08-01T02:29:41;20.60;99.90
5248;DHT22;2644;52.420;13.580;2022-08-01T02:30:48;20.60;99.90
5248;DHT22;2644;52.420;13.580;2022-08-01T02:31:53;20.60;99.90
5248;DHT22;2644;52.420;13.580;2022-08-01T02:32:59;20.60;99.90
5248;DHT22;2644;52.420;13.580;2022-08-01T02:34:06;20.60;99.90
5248;DHT22;2644;52.420;13.580;2022-08-01T02:35:13;20.60;99.90
5248;DHT22;2644;52.420;13.580;2022-08-01T02:36:20;20.50;99.90
5248;DHT22;2644;52.420;13.580;2022-08-01T02:37:36;20.50;99.90
5248;DHT22;2644;52.420;13.580;2022-08-01T02:38:48;20.50;99.90
5248;DHT22;2644;52.420;13.580;2022-08-01T02:39:52;20.40;99.90
5248;DHT22;2644;52.420;13.580;2022-08-01T02:40:58;20.50;99.90
5248;DHT22;2644;52.420;13.580;2022-08-01T02:42:05;20.40;99.90
5248;DHT22;2644;52.420;13.580;2022-08-01T02:43:10;20.40;99.90
5248;DHT22;2644;52.420;13.580;2022-08-01T02:44:18;20.40;99.90
5248;DHT22;2644;52.420;13.580;2022-08-01T02:45:25;20.30;99.90
5248;DHT22;2644;52.420;13.580;2022-08-01T02:46:36;20.30;99.90
5248;DHT22;2644;52.420;13.580;2022-08-01T02:47:40;20.20;99.90
5248;DHT22;2644;52.420;13.580;2022-08-01T02:48:45;20.20;99.90
5248;DHT22;2644;52.420;13.580;2022-08-01T02:49:52;20.20;99.90
5248;DHT22;2644;52.420;13.580;2022-08-01T02:51:00;20.20;99.90
5248;DHT22;2644;52.420;13.580;2022-08-01T02:52:09;20.10;99.90
5248;DHT22;2644;52.420;13.580;2022-08-01T02:53:14;20.10;99.90
5248;DHT22;2644;52.420;13.580;2022-08-01T02:54:18;20.00;99.90
5248;DHT22;2644;52.420;13.580;2022-08-01T02:55:24;20.00;99.90
5248;DHT22;2644;52.420;13.580;2022-08-01T02:56:29;20.00;99.90
5248;DHT22;2644;52.420;13.580;2022-08-01T02:57:37;19.90;99.90
5248;DHT22;2644;52.420;13.580;2022-08-01T02:58:53;19.90;99.90
5248;DHT22;2644;52.420;13.580;2022-08-01T02:59:57;19.90;99.90
5248;DHT22;2644;52.420;13.580;2022-08-01T03:01:01;19.80;99.90
5248;DHT22;2644;52.420;13.580;2022-08-01T03:02:07;19.90;99.90
5248;DHT22;2644;52.420;13.580;2022-08-01T03:03:12;19.80;99.90
5248;DHT22;2644;52.420;13.580;2022-08-01T03:04:17;19.90;99.90
5248;DHT22;2644;52.420;13.580;2022-08-01T03:05:21;19.80;99.90
5248;DHT22;2644;52.420;13.580;2022-08-01T03:06:26;19.80;99.90
5248;DHT22;2644;52.420;13.580;2022-08-01T03:07:30;19.80;99.90
5248;DHT22;2644;52.420;13.580;2022-08-01T03:08:36;19.80;99.90
5248;DHT22;2644;52.420;13.580;2022-08-01T03:09:41;19.80;99.90
5248;DHT22;2644;52.420;13.580;2022-08-01T03:10:46;19.80;99.90
5248;DHT22;2644;52.420;13.580;2022-08-01T03:11:50;19.80;99.90
5248;DHT22;2644;52.420;13.580;2022-08-01T03:12:54;19.80;99.90
5248;DHT22;2644;52.420;13.580;2022-08-01T03:13:59;19.80;99.90
5248;DHT22;2644;52.420;13.580;2022-08-01T03:15:03;19.80;99.90
5248;DHT22;2644;52.420;13.580;2022-08-01T03:16:08;19.80;99.90
5248;DHT22;2644;52.420;13.580;2022-08-01T03:17:13;19.80;99.90
5248;DHT22;2644;52.420;13.580;2022-08-01T03:18:17;19.80;99.90
5248;DHT22;2644;52.420;13.580;2022-08-01T03:19:23;19.80;99.90
5248;DHT22;2644;52.420;13.580;2022-08-01T03:20:27;19.80;99.90
5248;DHT22;2644;52.420;13.580;2022-08-01T03:21:33;19.70;99.90
5248;DHT22;2644;52.420;13.580;2022-08-01T03:22:38;19.70;99.90
5248;DHT22;2644;52.420;13.580;2022-08-01T03:23:42;19.70;99.90
5248;DHT22;2644;52.420;13.580;2022-08-01T03:24:48;19.60;99.90
5248;DHT22;2644;52.420;13.580;2022-08-01T03:25:52;19.60;99.90
5248;DHT22;2644;52.420;13.580;2022-08-01T03:26:56;19.60;99.90
5248;DHT22;2644;52.420;13.580;2022-08-01T03:28:03;19.60;99.90
5248;DHT22;2644;52.420;13.580;2022-08-01T03:29:08;19.60;99.90
5248;DHT22;2644;52.420;13.580;2022-08-01T03:30:13;19.50;99.90
5248;DHT22;2644;52.420;13.580;2022-08-01T03:31:16;19.50;99.90
5248;DHT22;2644;52.420;13.580;2022-08-01T03:32:21;19.50;99.90
5248;DHT22;2644;52.420;13.580;2022-08-01T03:33:23;19.50;99.90
5248;DHT22;2644;52.420;13.580;2022-08-01T03:34:27;19.50;99.90
5248;DHT22;2644;52.420;13.580;2022-08-01T03:35:32;19.50;99.90
5248;DHT22;2644;52.420;13.580;2022-08-01T03:36:45;19.50;99.90
5248;DHT22;2644;52.420;13.580;2022-08-01T03:37:52;19.50;99.90
5248;DHT22;2644;52.420;13.580;2022-08-01T03:39:17;19.50;99.90
5248;DHT22;2644;52.420;13.580;2022-08-01T03:40:23;19.50;99.90
5248;DHT22;2644;52.420;13.580;2022-08-01T03:41:32;19.50;99.90
5248;DHT22;2644;52.420;13.580;2022-08-01T03:42:41;19.50;99.90
5248;DHT22;2644;52.420;13.580;2022-08-01T03:43:50;19.50;99.90
5248;DHT22;2644;52.420;13.580;2022-08-01T03:44:56;19.50;99.90
5248;DHT22;2644;52.420;13.580;2022-08-01T03:46:04;19.50;99.90
5248;DHT22;2644;52.420;13.580;2022-08-01T03:47:10;19.50;99.90
5248;DHT22;2644;52.420;13.580;2022-08-01T03:48:17;19.50;99.90
5248;DHT22;2644;52.420;13.580;2022-08-01T03:49:23;19.40;99.90
5248;DHT22;2644;52.420;13.580;2022-08-01T03:50:29;19.40;99.90
5248;DHT22;2644;52.420;13.580;2022-08-01T03:51:37;19.40;99.90
5248;DHT22;2644;52.420;13.580;2022-08-01T03:52:43;19.50;99.90
5248;DHT22;2644;52.420;13.580;2022-08-01T03:53:47;19.40;99.90
5248;DHT22;2644;52.420;13.580;2022-08-01T03:54:54;19.40;99.90
5248;DHT22;2644;52.420;13.580;2022-08-01T03:55:58;19.50;99.90
5248;DHT22;2644;52.420;13.580;2022-08-01T03:57:02;19.40;99.90
5248;DHT22;2644;52.420;13.580;2022-08-01T03:58:06;19.40;99.90
5248;DHT22;2644;52.420;13.580;2022-08-01T03:59:10;19.50;99.90
5248;DHT22;2644;52.420;13.580;2022-08-01T04:00:13;19.40;99.90
5248;DHT22;2644;52.420;13.580;2022-08-01T04:01:21;19.50;99.90
5248;DHT22;2644;52.420;13.580;2022-08-01T04:02:25;19.50;99.90
5248;DHT22;2644;52.420;13.580;2022-08-01T04:03:33;19.50;99.90
5248;DHT22;2644;52.420;13.580;2022-08-01T04:04:44;19.50;99.90
5248;DHT22;2644;52.420;13.580;2022-08-01T04:05:48;19.50;99.90
5248;DHT22;2644;52.420;13.580;2022-08-01T04:06:50;19.50;99.90
5248;DHT22;2644;52.420;13.580;2022-08-01T04:07:55;19.50;99.90
5248;DHT22;2644;52.420;13.580;2022-08-01T04:08:58;19.50;99.90
5248;DHT22;2644;52.420;13.580;2022-08-01T04:10:01;19.50;99.90
5248;DHT22;2644;52.420;13.580;2022-08-01T04:11:04;19.60;99.90
5248;DHT22;2644;52.420;13.580;2022-08-01T04:12:07;19.60;99.90
5248;DHT22;2644;52.420;13.580;2022-08-01T04:13:13;19.60;99.90
5248;DHT22;2644;52.420;13.580;2022-08-01T04:14:16;19.60;99.90
5248;DHT22;2644;52.420;13.580;2022-08-01T04:15:18;19.60;99.90
5248;DHT22;2644;52.420;13.580;2022-08-01T04:16:22;19.60;99.90
5248;DHT22;2644;52.420;13.580;2022-08-01T04:17:25;19.60;99.90
5248;DHT22;2644;52.420;13.580;2022-08-01T04:18:28;19.60;99.90
5248;DHT22;2644;52.420;13.580;2022-08-01T04:19:31;19.60;99.90
5248;DHT22;2644;52.420;13.580;2022-08-01T04:20:34;19.60;99.90
5248;DHT22;2644;52.420;13.580;2022-08-01T04:21:37;19.70;99.90
5248;DHT22;2644;52.420;13.580;2022-08-01T04:22:40;19.60;99.90
5248;DHT22;2644;52.420;13.580;2022-08-01T04:23:44;19.60;99.90
5248;DHT22;2644;52.420;13.580;2022-08-01T04:24:55;19.60;99.90
5248;DHT22;2644;52.420;13.580;2022-08-01T04:26:02;19.70;99.90
5248;DHT22;2644;52.420;13.580;2022-08-01T04:27:09;19.70;99.90
5248;DHT22;2644;52.420;13.580;2022-08-01T04:28:15;19.80;99.90
5248;DHT22;2644;52.420;13.580;2022-08-01T04:29:19;19.80;99.90
5248;DHT22;2644;52.420;13.580;2022-08-01T04:30:27;19.80;99.90
5248;DHT22;2644;52.420;13.580;2022-08-01T04:31:30;19.80;99.90
5248;DHT22;2644;52.420;13.580;2022-08-01T04:32:35;19.80;99.90
5248;DHT22;2644;52.420;13.580;2022-08-01T04:33:42;19.80;99.90
5248;DHT22;2644;52.420;13.580;2022-08-01T04:34:49;19.80;99.90
5248;DHT22;2644;52.420;13.580;2022-08-01T04:35:52;19.90;99.90
5248;DHT22;2644;52.420;13.580;2022-08-01T04:37:07;19.90;99.90
5248;DHT22;2644;52.420;13.580;2022-08-01T04:38:16;20.00;99.90
5248;DHT22;2644;52.420;13.580;2022-08-01T04:39:20;20.00;99.90
5248;DHT22;2644;52.420;13.580;2022-08-01T04:40:24;20.00;99.90
5248;DHT22;2644;52.420;13.580;2022-08-01T04:41:30;20.00;99.90
5248;DHT22;2644;52.420;13.580;2022-08-01T04:42:32;20.10;99.90
5248;DHT22;2644;52.420;13.580;2022-08-01T04:43:36;20.10;99.90
5248;DHT22;2644;52.420;13.580;2022-08-01T04:44:38;20.10;99.90
5248;DHT22;2644;52.420;13.580;2022-08-01T04:45:42;20.10;99.90
5248;DHT22;2644;52.420;13.580;2022-08-01T04:46:45;20.20;99.90
5248;DHT22;2644;52.420;13.580;2022-08-01T04:47:51;20.20;99.90
5248;DHT22;2644;52.420;13.580;2022-08-01T04:48:54;20.20;99.90
5248;DHT22;2644;52.420;13.580;2022-08-01T04:49:59;20.20;99.90
5248;DHT22;2644;52.420;13.580;2022-08-01T04:51:01;20.20;99.90
5248;DHT22;2644;52.420;13.580;2022-08-01T04:52:04;20.20;99.90
5248;DHT22;2644;52.420;13.580;2022-08-01T04:53:12;20.20;99.90
5248;DHT22;2644;52.420;13.580;2022-08-01T04:54:16;20.20;99.90
5248;DHT22;2644;52.420;13.580;2022-08-01T04:55:18;20.20;99.90
5248;DHT22;2644;52.420;13.580;2022-08-01T04:56:21;20.20;99.90
5248;DHT22;2644;52.420;13.580;2022-08-01T04:57:23;20.20;99.90
5248;DHT22;2644;52.420;13.580;2022-08-01T04:58:26;20.20;99.90
5248;DHT22;2644;52.420;13.580;2022-08-01T04:59:29;20.20;99.90
5248;DHT22;2644;52.420;13.580;2022-08-01T05:00:41;20.20;99.90
5248;DHT22;2644;52.420;13.580;2022-08-01T05:01:48;20.20;99.90
5248;DHT22;2644;52.420;13.580;2022-08-01T05:02:51;20.20;99.90
5248;DHT22;2644;52.420;13.580;2022-08-01T05:03:53;20.20;99.90
5248;DHT22;2644;52.420;13.580;2022-08-01T05:04:59;20.20;99.90
5248;DHT22;2644;52.420;13.580;2022-08-01T05:06:03;20.20;99.90
5248;DHT22;2644;52.420;13.580;2022-08-01T05:07:06;20.30;99.90
5248;DHT22;2644;52.420;13.580;2022-08-01T05:08:09;20.30;99.90
5248;DHT22;2644;52.420;13.580;2022-08-01T05:09:11;20.30;99.90
5248;DHT22;2644;52.420;13.580;2022-08-01T05:10:15;20.20;99.90
5248;DHT22;2644;52.420;13.580;2022-08-01T05:11:17;20.30;99.90
5248;DHT22;2644;52.420;13.580;2022-08-01T05:12:23;20.30;99.90
5248;DHT22;2644;52.420;13.580;2022-08-01T05:13:25;20.30;99.90
5248;DHT22;2644;52.420;13.580;2022-08-01T05:14:29;20.30;99.90
5248;DHT22;2644;52.420;13.580;2022-08-01T05:15:34;20.40;99.90
5248;DHT22;2644;52.420;13.580;2022-08-01T05:16:38;20.40;99.90
5248;DHT22;2644;52.420;13.580;2022-08-01T05:17:40;20.40;99.90
5248;DHT22;2644;52.420;13.580;2022-08-01T05:18:44;20.40;99.90
5248;DHT22;2644;52.420;13.580;2022-08-01T05:19:48;20.40;99.90
5248;DHT22;2644;52.420;13.580;2022-08-01T05:20:53;20.40;99.90
5248;DHT22;2644;52.420;13.580;2022-08-01T05:21:55;20.40;99.90
5248;DHT22;2644;52.420;13.580;2022-08-01T05:23:01;20.40;99.90
5248;DHT22;2644;52.420;13.580;2022-08-01T05:24:04;20.40;99.90
5248;DHT22;2644;52.420;13.580;2022-08-01T05:25:07;20.50;99.90
5248;DHT22;2644;52.420;13.580;2022-08-01T05:26:10;20.40;99.90
5248;DHT22;2644;52.420;13.580;2022-08-01T05:27:15;20.50;99.90
5248;DHT22;2644;52.420;13.580;2022-08-01T05:28:20;20.50;99.90
5248;DHT22;2644;52.420;13.580;2022-08-01T05:29:23;20.50;99.90
5248;DHT22;2644;52.420;13.580;2022-08-01T05:30:25;20.50;99.90
5248;DHT22;2644;52.420;13.580;2022-08-01T05:31:28;20.50;99.90
5248;DHT22;2644;52.420;13.580;2022-08-01T05:32:30;20.50;99.90
5248;DHT22;2644;52.420;13.580;2022-08-01T05:33:33;20.50;99.90
5248;DHT22;2644;52.420;13.580;2022-08-01T05:34:36;20.50;99.90
5248;DHT22;2644;52.420;13.580;2022-08-01T05:35:39;20.60;99.90
5248;DHT22;2644;52.420;13.580;2022-08-01T05:36:51;20.60;99.90
5248;DHT22;2644;52.420;13.580;2022-08-01T05:37:58;20.50;99.90
5248;DHT22;2644;52.420;13.580;2022-08-01T05:39:01;20.50;99.90
5248;DHT22;2644;52.420;13.580;2022-08-01T05:40:05;20.60;99.90
5248;DHT22;2644;52.420;13.580;2022-08-01T05:41:08;20.50;99.90
5248;DHT22;2644;52.420;13.580;2022-08-01T05:42:10;20.60;99.90
5248;DHT22;2644;52.420;13.580;2022-08-01T05:43:13;20.50;99.90
5248;DHT22;2644;52.420;13.580;2022-08-01T05:44:15;20.50;99.90
5248;DHT22;2644;52.420;13.580;2022-08-01T05:45:19;20.50;99.90
5248;DHT22;2644;52.420;13.580;2022-08-01T05:46:22;20.50;99.90
5248;DHT22;2644;52.420;13.580;2022-08-01T05:47:28;20.50;99.90
5248;DHT22;2644;52.420;13.580;2022-08-01T05:48:31;20.40;99.90
5248;DHT22;2644;52.420;13.580;2022-08-01T05:49:33;20.40;99.90
5248;DHT22;2644;52.420;13.580;2022-08-01T05:50:36;20.50;99.90
5248;DHT22;2644;52.420;13.580;2022-08-01T05:51:38;20.40;99.90
5248;DHT22;2644;52.420;13.580;2022-08-01T05:52:42;20.50;99.90
5248;DHT22;2644;52.420;13.580;2022-08-01T05:53:45;20.40;99.90
5248;DHT22;2644;52.420;13.580;2022-08-01T05:54:49;20.50;99.90
5248;DHT22;2644;52.420;13.580;2022-08-01T05:55:51;20.50;99.90
5248;DHT22;2644;52.420;13.580;2022-08-01T05:56:54;20.50;99.90
5248;DHT22;2644;52.420;13.580;2022-08-01T05:58:00;20.50;99.90
5248;DHT22;2644;52.420;13.580;2022-08-01T05:59:03;20.50;99.90
5248;DHT22;2644;52.420;13.580;2022-08-01T06:00:06;20.60;99.90
5248;DHT22;2644;52.420;13.580;2022-08-01T06:01:12;20.60;99.90
5248;DHT22;2644;52.420;13.580;2022-08-01T06:02:14;20.70;99.90
5248;DHT22;2644;52.420;13.580;2022-08-01T06:03:18;20.70;99.90
5248;DHT22;2644;52.420;13.580;2022-08-01T06:04:20;20.70;99.90
5248;DHT22;2644;52.420;13.580;2022-08-01T06:05:23;20.80;99.90
5248;DHT22;2644;52.420;13.580;2022-08-01T06:06:26;20.80;99.90
5248;DHT22;2644;52.420;13.580;2022-08-01T06:07:29;20.80;99.90
5248;DHT22;2644;52.420;13.580;2022-08-01T06:08:33;20.80;99.90
5248;DHT22;2644;52.420;13.580;2022-08-01T06:09:36;20.80;99.90
5248;DHT22;2644;52.420;13.580;2022-08-01T06:10:38;20.80;99.90
5248;DHT22;2644;52.420;13.580;2022-08-01T06:11:41;20.80;99.90
5248;DHT22;2644;52.420;13.580;2022-08-01T06:12:44;20.90;99.90
5248;DHT22;2644;52.420;13.580;2022-08-01T06:13:46;20.90;99.90
5248;DHT22;2644;52.420;13.580;2022-08-01T06:14:49;21.00;99.90
5248;DHT22;2644;52.420;13.580;2022-08-01T06:15:52;21.00;99.90
5248;DHT22;2644;52.420;13.580;2022-08-01T06:16:55;21.10;99.90
5248;DHT22;2644;52.420;13.580;2022-08-01T06:17:57;21.10;99.90
5248;DHT22;2644;52.420;13.580;2022-08-01T06:19:00;21.10;99.90
5248;DHT22;2644;52.420;13.580;2022-08-01T06:20:03;21.20;99.90
5248;DHT22;2644;52.420;13.580;2022-08-01T06:21:06;21.20;99.90
5248;DHT22;2644;52.420;13.580;2022-08-01T06:22:08;21.20;99.90
5248;DHT22;2644;52.420;13.580;2022-08-01T06:23:11;21.20;99.90
5248;DHT22;2644;52.420;13.580;2022-08-01T06:24:34;21.20;99.90
5248;DHT22;2644;52.420;13.580;2022-08-01T06:25:37;21.20;99.90
5248;DHT22;2644;52.420;13.580;2022-08-01T06:26:39;21.20;99.90
5248;DHT22;2644;52.420;13.580;2022-08-01T06:27:43;21.20;99.90
5248;DHT22;2644;52.420;13.580;2022-08-01T06:28:45;21.20;99.90
5248;DHT22;2644;52.420;13.580;2022-08-01T06:29:48;21.20;99.90
5248;DHT22;2644;52.420;13.580;2022-08-01T06:30:54;21.30;99.90
5248;DHT22;2644;52.420;13.580;2022-08-01T06:31:58;21.40;99.90
5248;DHT22;2644;52.420;13.580;2022-08-01T06:33:01;21.40;99.90
5248;DHT22;2644;52.420;13.580;2022-08-01T06:34:03;21.50;99.90
5248;DHT22;2644;52.420;13.580;2022-08-01T06:35:07;21.60;99.90
5248;DHT22;2644;52.420;13.580;2022-08-01T06:36:09;21.60;99.90
5248;DHT22;2644;52.420;13.580;2022-08-01T06:37:12;21.60;99.90
5248;DHT22;2644;52.420;13.580;2022-08-01T06:38:15;21.60;99.90
5248;DHT22;2644;52.420;13.580;2022-08-01T06:39:18;21.60;99.90
5248;DHT22;2644;52.420;13.580;2022-08-01T06:40:23;21.60;99.90
5248;DHT22;2644;52.420;13.580;2022-08-01T06:41:26;21.60;99.90
5248;DHT22;2644;52.420;13.580;2022-08-01T06:42:28;21.60;99.90
5248;DHT22;2644;52.420;13.580;2022-08-01T06:43:33;21.60;99.90
5248;DHT22;2644;52.420;13.580;2022-08-01T06:44:36;21.70;99.90
5248;DHT22;2644;52.420;13.580;2022-08-01T06:45:38;21.70;99.90
5248;DHT22;2644;52.420;13.580;2022-08-01T06:46:42;21.70;99.90
5248;DHT22;2644;52.420;13.580;2022-08-01T06:47:45;21.70;99.90
5248;DHT22;2644;52.420;13.580;2022-08-01T06:48:51;21.70;99.90
5248;DHT22;2644;52.420;13.580;2022-08-01T06:49:54;21.80;99.90
5248;DHT22;2644;52.420;13.580;2022-08-01T06:50:56;21.80;99.90
5248;DHT22;2644;52.420;13.580;2022-08-01T06:52:10;21.70;99.90
5248;DHT22;2644;52.420;13.580;2022-08-01T06:53:12;21.70;99.90
5248;DHT22;2644;52.420;13.580;2022-08-01T06:54:15;21.70;99.90
5248;DHT22;2644;52.420;13.580;2022-08-01T06:55:18;21.70;99.90
5248;DHT22;2644;52.420;13.580;2022-08-01T06:56:23;21.60;99.90
5248;DHT22;2644;52.420;13.580;2022-08-01T06:57:26;21.60;99.90
5248;DHT22;2644;52.420;13.580;2022-08-01T06:58:28;21.50;99.90